Robertsport/Cape Mount Airport

Jump to: basic info | weather | comments

Related pages: nearby airports | nearby navaids | notams | map

Basic information (top)

Codes: GLCM
Location: lon 6.800000, lat -11.367000, elev 10 ft / 3 m msl
Status: small_airport

Weather (top)

Current conditions for Roberts International Airport 69nm (128km) ESE (rec'd 2014/04/18 13:00Z):

GLRB 181300Z 00000KT 9999 BKN020 32/25 Q1009 NOSIG

Airport forecast for Roberts International Airport 69nm (128km) ESE (rec'd 2014/04/18 12:51Z):

TAF TAF GLRB 181000Z 1812/1918 23010KT 9999 BKN018 
     FM181300 20008KT 8000 SHRA BKN017 FEW026CB 
      TEMPO 1820/1900 00000KT 9999 SCT014 BKN090 
      TEMPO 1901/1905 VRB03KT 9000 BKN012

Latest comments (top)

No comments yet for Robertsport/Cape Mount Airport

More... (top)

See also NOTAMs and nearby airports and navaids, or visit the Robertsport/Cape Mount Airport page at the main OurAirports website..